Citta Di Savona — IMDS — position and weather

sailwx.info

Track history (hours):
 
Tides and Currents Weather Stations Pressure Air Temp Water Temp Dewpoint Dewpoint Depression Visibility Wind Speed Wind Dir Waves Ship Positions

Citta Di Savona

Last reported at 2015-Jan-28 13:26 UTC. Time now 2015-Jan-28 14:14 UTC.
Position N 44°17' E 008°28'.

Length 31 m; draft 4.2 m.

Type: Tug. MMSI: 247402000.

Date/timePositionNaut miles runAvg speedWind from/ knotsBaromVisibWave heightAir tempDewpointWater temp
2015-Jan-28 13:26N 44°17' E 008°28'1 0.9
2015-Jan-28 12:33N 44°17' E 008°28'1 1.5
2015-Jan-28 11:33N 44°18' E 008°29'0 0.0
2015-Jan-28 10:33N 44°18' E 008°29'0 0.0
2015-Jan-28 08:17N 44°18' E 008°29'0 0.0
2015-Jan-28 07:33N 44°18' E 008°29'0 0.2
2015-Jan-28 06:33N 44°19' E 008°29'0 0.0
2015-Jan-27 22:32N 44°18' E 008°29'0 0.0
2015-Jan-27 19:32N 44°18' E 008°29'0 0.0
2015-Jan-27 18:32N 44°18' E 008°29'0 0.0
2015-Jan-27 15:11N 44°18' E 008°29'0 0.0
2015-Jan-27 14:17N 44°18' E 008°29'0 0.0
2015-Jan-27 13:32N 44°18' E 008°29'0 0.0
2015-Jan-27 09:14N 44°18' E 008°29'2 2.7
2015-Jan-27 08:24N 44°17' E 008°28'1 0.7
2015-Jan-27 07:33N 44°16' E 008°27'3 0.1
2015-Jan-26 11:33N 44°19' E 008°29'0 0.0
2015-Jan-26 10:10N 44°18' E 008°29'0 0.0
2015-Jan-26 08:16N 44°18' E 008°29'0 0.0
2015-Jan-26 07:07N 44°18' E 008°29'0 0.0
2015-Jan-26 06:28N 44°18' E 008°29'3 2.7
2015-Jan-26 05:31N 44°16' E 008°28'3 2.0
2015-Jan-26 04:16N 44°18' E 008°29'0 0.0
2015-Jan-26 02:28N 44°18' E 008°29'0 0.0
2015-Jan-26 01:31N 44°18' E 008°29'0 0.0
2015-Jan-25 11:17N 44°18' E 008°29'0 0.0
2015-Jan-25 10:20N 44°18' E 008°29'0 0.0
2015-Jan-25 08:20N 44°18' E 008°29'0 0.0
2015-Jan-25 07:05N 44°18' E 008°29'0 0.0
2015-Jan-24 11:12N 44°18' E 008°29'0 0.0
2015-Jan-24 09:15N 44°18' E 008°29'0 0.0
2015-Jan-24 07:06N 44°18' E 008°29'0 0.0
2015-Jan-23 11:24N 44°18' E 008°29'0 0.0
2015-Jan-23 07:30N 44°18' E 008°29'0 0.0
2015-Jan-23 03:31N 44°18' E 008°29'0 0.0
2015-Jan-23 02:28N 44°18' E 008°29'0 0.0
2015-Jan-23 01:16N 44°18' E 008°29'0 0.0
2015-Jan-23 00:25N 44°18' E 008°29'0 0.4
2015-Jan-22 23:32N 44°19' E 008°30'0 0.0
2015-Jan-22 10:29N 44°18' E 008°29'0 0.0
2015-Jan-22 07:19N 44°18' E 008°29'0 0.0
2015-Jan-22 04:19N 44°18' E 008°29'0 0.0
2015-Jan-22 03:31N 44°18' E 008°29'0 0.0
2015-Jan-22 02:31N 44°18' E 008°29'0 0.0
2015-Jan-22 01:25N 44°18' E 008°29'0 0.0
2015-Jan-22 00:28N 44°18' E 008°29'0 0.0
2015-Jan-21 08:16N 44°18' E 008°29'0 0.0
2015-Jan-21 07:25N 44°18' E 008°29'1 1.5
2015-Jan-21 06:33N 44°17' E 008°29'2 1.5
2015-Jan-21 05:29N 44°16' E 008°27'3 2.9
2015-Jan-21 04:33N 44°18' E 008°30'0 0.4
2015-Jan-21 03:31N 44°18' E 008°29'0 0.0
2015-Jan-21 02:31N 44°18' E 008°29'0 0.0
2015-Jan-21 00:25N 44°18' E 008°29'0 0.2
2015-Jan-20 23:33N 44°19' E 008°29'0 0.2
2015-Jan-20 22:13N 44°18' E 008°29'0 0.0
2015-Jan-20 20:07N 44°18' E 008°29'0 0.0
2015-Jan-20 19:28N 44°18' E 008°29'0 0.5
2015-Jan-20 18:31N 44°19' E 008°30'0 0.2
2015-Jan-20 16:05N 44°18' E 008°29'0 0.0
2015-Jan-20 15:30N 44°18' E 008°29'0 0.2
2015-Jan-20 14:11N 44°19' E 008°29'0 0.5
2015-Jan-20 13:33N 44°18' E 008°29'0 0.1
2015-Jan-20 05:33N 44°19' E 008°30'0 0.1
2015-Jan-20 04:33N 44°19' E 008°30'1 0.1
2015-Jan-19 19:32N 44°18' E 008°29'2 2.0
2015-Jan-19 18:26N 44°17' E 008°28'0 0.4
2015-Jan-19 17:33N 44°17' E 008°28'2 2.1
2015-Jan-19 16:30N 44°18' E 008°29'0 0.0
2015-Jan-19 15:30N 44°18' E 008°29'0 0.0
2015-Jan-19 14:33N 44°18' E 008°29'0 0.0
2015-Jan-19 13:30N 44°18' E 008°29'0 0.0
2015-Jan-19 12:24N 44°18' E 008°29'0 0.0
2015-Jan-19 11:30N 44°18' E 008°29'0 0.0
2015-Jan-19 10:33N 44°18' E 008°29'0 0.0
2015-Jan-19 07:29N 44°18' E 008°29'0 0.0
2015-Jan-19 06:29N 44°18' E 008°29'0 0.0
2015-Jan-18 22:24N 44°18' E 008°29'0 0.0
2015-Jan-18 19:33N 44°18' E 008°29'0 0.0
2015-Jan-18 15:33N 44°18' E 008°29'0 0.0
2015-Jan-18 14:30N 44°18' E 008°29'  
Track history (hours):
 
Tides and Currents Weather Stations Pressure Air Temp Water Temp Dewpoint Dewpoint Depression Visibility Wind Speed Wind Dir Waves Ship Positions

Citta Di Savona

Last reported at 2015-Jan-28 13:26 UTC. Time now 2015-Jan-28 14:14 UTC.
Position N 44°17' E 008°28'.

Length 31 m; draft 4.2 m.

Type: Tug. MMSI: 247402000.

Date/timePositionNaut miles runAvg speedWind from/ knotsBaromVisibWave heightAir tempDewpointWater temp
2015-Jan-28 13:26N 44°17' E 008°28'1 0.9
2015-Jan-28 12:33N 44°17' E 008°28'1 1.5
2015-Jan-28 11:33N 44°18' E 008°29'0 0.0
2015-Jan-28 10:33N 44°18' E 008°29'0 0.0
2015-Jan-28 08:17N 44°18' E 008°29'0 0.0
2015-Jan-28 07:33N 44°18' E 008°29'0 0.2
2015-Jan-28 06:33N 44°19' E 008°29'0 0.0
2015-Jan-27 22:32N 44°18' E 008°29'0 0.0
2015-Jan-27 19:32N 44°18' E 008°29'0 0.0
2015-Jan-27 18:32N 44°18' E 008°29'0 0.0
2015-Jan-27 15:11N 44°18' E 008°29'0 0.0
2015-Jan-27 14:17N 44°18' E 008°29'0 0.0
2015-Jan-27 13:32N 44°18' E 008°29'0 0.0
2015-Jan-27 09:14N 44°18' E 008°29'2 2.7
2015-Jan-27 08:24N 44°17' E 008°28'1 0.7
2015-Jan-27 07:33N 44°16' E 008°27'3 0.1
2015-Jan-26 11:33N 44°19' E 008°29'0 0.0
2015-Jan-26 10:10N 44°18' E 008°29'0 0.0
2015-Jan-26 08:16N 44°18' E 008°29'0 0.0
2015-Jan-26 07:07N 44°18' E 008°29'0 0.0
2015-Jan-26 06:28N 44°18' E 008°29'3 2.7
2015-Jan-26 05:31N 44°16' E 008°28'3 2.0
2015-Jan-26 04:16N 44°18' E 008°29'0 0.0
2015-Jan-26 02:28N 44°18' E 008°29'0 0.0
2015-Jan-26 01:31N 44°18' E 008°29'0 0.0
2015-Jan-25 11:17N 44°18' E 008°29'0 0.0
2015-Jan-25 10:20N 44°18' E 008°29'0 0.0
2015-Jan-25 08:20N 44°18' E 008°29'0 0.0
2015-Jan-25 07:05N 44°18' E 008°29'0 0.0
2015-Jan-24 11:12N 44°18' E 008°29'0 0.0
2015-Jan-24 09:15N 44°18' E 008°29'0 0.0
2015-Jan-24 07:06N 44°18' E 008°29'0 0.0
2015-Jan-23 11:24N 44°18' E 008°29'0 0.0
2015-Jan-23 07:30N 44°18' E 008°29'0 0.0
2015-Jan-23 03:31N 44°18' E 008°29'0 0.0
2015-Jan-23 02:28N 44°18' E 008°29'0 0.0
2015-Jan-23 01:16N 44°18' E 008°29'0 0.0
2015-Jan-23 00:25N 44°18' E 008°29'0 0.4
2015-Jan-22 23:32N 44°19' E 008°30'0 0.0
2015-Jan-22 10:29N 44°18' E 008°29'0 0.0
2015-Jan-22 07:19N 44°18' E 008°29'0 0.0
2015-Jan-22 04:19N 44°18' E 008°29'0 0.0
2015-Jan-22 03:31N 44°18' E 008°29'0 0.0
2015-Jan-22 02:31N 44°18' E 008°29'0 0.0
2015-Jan-22 01:25N 44°18' E 008°29'0 0.0
2015-Jan-22 00:28N 44°18' E 008°29'0 0.0
2015-Jan-21 08:16N 44°18' E 008°29'0 0.0
2015-Jan-21 07:25N 44°18' E 008°29'1 1.5
2015-Jan-21 06:33N 44°17' E 008°29'2 1.5
2015-Jan-21 05:29N 44°16' E 008°27'3 2.9
2015-Jan-21 04:33N 44°18' E 008°30'0 0.4
2015-Jan-21 03:31N 44°18' E 008°29'0 0.0
2015-Jan-21 02:31N 44°18' E 008°29'0 0.0
2015-Jan-21 00:25N 44°18' E 008°29'0 0.2
2015-Jan-20 23:33N 44°19' E 008°29'0 0.2
2015-Jan-20 22:13N 44°18' E 008°29'0 0.0
2015-Jan-20 20:07N 44°18' E 008°29'0 0.0
2015-Jan-20 19:28N 44°18' E 008°29'0 0.5
2015-Jan-20 18:31N 44°19' E 008°30'0 0.2
2015-Jan-20 16:05N 44°18' E 008°29'0 0.0
2015-Jan-20 15:30N 44°18' E 008°29'0 0.2
2015-Jan-20 14:11N 44°19' E 008°29'0 0.5
2015-Jan-20 13:33N 44°18' E 008°29'0 0.1
2015-Jan-20 05:33N 44°19' E 008°30'0 0.1
2015-Jan-20 04:33N 44°19' E 008°30'1 0.1
2015-Jan-19 19:32N 44°18' E 008°29'2 2.0
2015-Jan-19 18:26N 44°17' E 008°28'0 0.4
2015-Jan-19 17:33N 44°17' E 008°28'2 2.1
2015-Jan-19 16:30N 44°18' E 008°29'0 0.0
2015-Jan-19 15:30N 44°18' E 008°29'0 0.0
2015-Jan-19 14:33N 44°18' E 008°29'0 0.0
2015-Jan-19 13:30N 44°18' E 008°29'0 0.0
2015-Jan-19 12:24N 44°18' E 008°29'0 0.0
2015-Jan-19 11:30N 44°18' E 008°29'0 0.0
2015-Jan-19 10:33N 44°18' E 008°29'0 0.0
2015-Jan-19 07:29N 44°18' E 008°29'0 0.0
2015-Jan-19 06:29N 44°18' E 008°29'0 0.0
2015-Jan-18 22:24N 44°18' E 008°29'0 0.0
2015-Jan-18 19:33N 44°18' E 008°29'0 0.0
2015-Jan-18 15:33N 44°18' E 008°29'0 0.0
2015-Jan-18 14:30N 44°18' E 008°29'  

Dump ship's entire track history